Jamestown, ND

2:35 AM CDT on August 28, 2014 (GMT -0500)
Leapaldt Addition | Change Station
CLOSE
Current Station
Personal Weather Station
Location: Jamestown, ND
Elevation: 1486 ft
Nearby Weather Stations

Elev 1486 ft 46.93 °N, 98.69 °W | Updated 11 minutes ago

Overcast
Overcast
64.9 °F
Feels Like 64.9 °F
N
2.7
Wind Variable Wind from ESE

Today
High -- | Low -- °F
--% Chance of Precip.
Yesterday
High -- | Low -- °F
Precip. -- in
6:49 AM 8:21 PM
Waxing Crescent, 7% visible
Pressure 30.00 in
Visibility 10.0 miles
Clouds Mostly Cloudy 3600 ft
Mostly Cloudy 4700 ft
Overcast 5500 ft
Dew Point 61 °F
Humidity 88%
Rainfall 0.00 in
Snow Depth Not available.
UV 0 out of 12
Pollen 10.00 out of 12
Air Quality Not available.
Flu Activity Not available.
METAR KJMS 280656Z AUTO 15006KT 10SM BKN036 BKN047 OVC055 18/16 A3001 RMK AO2 SLP159 T01830156

More Conditions Fewer Conditions

Pressure 30.00 in
Visibility 10.0 miles
Clouds Mostly Cloudy 3600 ft
Mostly Cloudy 4700 ft
Overcast 5500 ft
Dew Point 61 °F
Humidity 88%
Rainfall 0.00 in
Snow Depth Not available.
UV 0 out of 12
Pollen 10.00 out of 12
Air Quality Not available.
Flu Activity Not available.
METAR KJMS 280656Z AUTO 15006KT 10SM BKN036 BKN047 OVC055 18/16 A3001 RMK AO2 SLP159 T01830156

More Conditions Fewer Conditions

10-Day Weather Forecast

Almanac

Astronomy

Aug. 28, 2014 Rise Set
Actual Time 6:49 AM CDT 8:21 PM CDT
Civil Twilight 6:17 AM CDT 8:53 PM CDT
Nautical Twilight 5:38 AM CDT 9:32 PM CDT
Astronomical Twilight 4:56 AM CDT 10:13 PM CDT
Moon 9:56 AM CDT 9:31 PM CDT
Length of Visible Light 14h 36m
Length of Day
13h 32m
Tomorrow will be 3m 12s shorter.
Waxing Crescent, 7% of the Moon is Illuminated
Today
Waxing Crescent
Sep 2
First Quarter
Sep 8
Full
Sep 15
Last Quarter
Sep 24
New

Today's Extremes

State Highs State Lows

Community

WunderPhotos

Upload Photos

1,747,912 photos uploaded!

Nearby

Snow Depth

Station Depth Elevation
No new snow has been reported.

Earthquake Activity

City Distance Mag. Time & Date
No recent earthquake activity has been reported nearby.
Minimum magnitude displayed is 2.5.

Coastal Water Temperatures

Place Temperature
No Stations Reporting

Nearby Weather Stations